Wetterdaten: Woche 17.03.14 - 23.03.14 (KW12)
Datum Zeit Temp. A. Feuchte A. Luftdruck Regen Wind Richtung Taupunkt Windchill Windben
17.03.2014 00:00 12,8 C 67 % 1013,6 hPa 0,0 l/m 14,9 km/h N 6,8 C 8,6 C 35,8 km/h
17.03.2014 01:00 12,8 C 67 % 1013,3 hPa 0,0 l/m 17,8 km/h N 6,8 C 7,6 C 39,8 km/h
17.03.2014 02:00 12,8 C 65 % 1013,1 hPa 0,0 l/m 20,2 km/h N 6,5 C 6,9 C 47,9 km/h
17.03.2014 03:00 12,6 C 65 % 1012,7 hPa 0,0 l/m 23,1 km/h N 6,2 C 5,9 C 49,1 km/h
17.03.2014 04:00 12,4 C 63 % 1012,7 hPa 0,0 l/m 24,5 km/h N 5,6 C 5,2 C 51,5 km/h
17.03.2014 05:00 12,5 C 63 % 1012,7 hPa 0,0 l/m 21,9 km/h N 5,7 C 6,0 C 47,5 km/h
17.03.2014 06:00 12,6 C 62 % 1013,3 hPa 0,0 l/m 21,5 km/h N 5,4 C 6,2 C 48,7 km/h
17.03.2014 07:00 12,7 C 63 % 1014,6 hPa 0,0 l/m 18,1 km/h N 5,8 C 7,3 C 43,8 km/h
17.03.2014 08:00 13,1 C 60 % 1015,0 hPa 0,0 l/m 22,5 km/h N 5,6 C 6,7 C 47,5 km/h
17.03.2014 09:00 13,6 C 59 % 1015,8 hPa 0,0 l/m 25,6 km/h N 5,7 C 6,6 C 52,3 km/h
17.03.2014 10:00 14,3 C 56 % 1016,2 hPa 0,0 l/m 21,0 km/h N 5,7 C 8,6 C 47,1 km/h
17.03.2014 11:00 15,4 C 52 % 1016,3 hPa 0,0 l/m 18,1 km/h N 5,7 C 10,8 C 38,6 km/h
17.03.2014 12:00 16,1 C 51 % 1015,8 hPa 0,0 l/m 17,6 km/h N 5,8 C 11,8 C 37,4 km/h
17.03.2014 13:00 16,7 C 50 % 1015,3 hPa 0,0 l/m 15,8 km/h N 6,1 C 13,0 C 38,2 km/h
17.03.2014 14:00 17,0 C 49 % 1015,0 hPa 0,0 l/m 18,2 km/h N 6,2 C 12,8 C 39,8 km/h
17.03.2014 15:00 17,4 C 49 % 1014,6 hPa 0,0 l/m 15,8 km/h N 6,6 C 13,9 C 38,2 km/h
17.03.2014 16:00 17,4 C 49 % 1014,3 hPa 0,0 l/m 14,3 km/h N 6,4 C 14,4 C 36,2 km/h
17.03.2014 17:00 17,0 C 49 % 1014,5 hPa 0,0 l/m 13,9 km/h N 6,2 C 13,9 C 29,4 km/h
17.03.2014 18:00 15,6 C 52 % 1015,1 hPa 0,0 l/m 2,5 km/h N 5,8 C 15,6 C 10,5 km/h
17.03.2014 19:00 13,7 C 58 % 1016,1 hPa 0,0 l/m 0,2 km/h N 5,7 C 13,7 C 2,4 km/h
17.03.2014 20:00 13,4 C 60 % 1016,8 hPa 0,0 l/m 2,0 km/h N 5,8 C 13,4 C 9,7 km/h
17.03.2014 21:00 13,1 C 61 % 1017,3 hPa 0,0 l/m 0,9 km/h N 5,6 C 13,1 C 5,2 km/h
17.03.2014 22:00 11,9 C 65 % 1017,6 hPa 0,0 l/m 2,0 km/h N 5,6 C 11,9 C 7,6 km/h
17.03.2014 23:00 12,6 C 62 % 1017,7 hPa 0,0 l/m 2,4 km/h N 5,5 C 12,6 C 10,4 km/h
18.03.2014 00:00 12,7 C 62 % 1017,7 hPa 0,0 l/m 3,5 km/h N 5,6 C 12,7 C 12,1 km/h
18.03.2014 01:00 12,0 C 63 % 1017,8 hPa 0,0 l/m 2,6 km/h N 5,2 C 12,0 C 10,9 km/h
18.03.2014 02:00 11,9 C 61 % 1017,8 hPa 0,0 l/m 3,8 km/h N 4,7 C 11,9 C 11,3 km/h
18.03.2014 03:00 11,8 C 61 % 1017,6 hPa 0,0 l/m 3,0 km/h N 4,6 C 11,8 C 10,5 km/h
18.03.2014 04:00 11,0 C 65 % 1017,6 hPa 0,0 l/m 0,5 km/h N 4,6 C 11,0 C 4,0 km/h
18.03.2014 05:00 10,0 C 67 % 1017,5 hPa 0,0 l/m 0,1 km/h N 4,2 C 10,0 C 0,8 km/h
18.03.2014 06:00 7,6 C 73 % 1017,6 hPa 0,0 l/m 0,1 km/h N 3,0 C 7,6 C 1,2 km/h
18.03.2014 07:00 7,6 C 81 % 1017,6 hPa 0,0 l/m 0,0 km/h N 4,5 C 7,6 C 0,0 km/h
18.03.2014 08:00 9,9 C 78 % 1017,7 hPa 0,0 l/m 0,1 km/h N 6,3 C 9,9 C 2,0 km/h
18.03.2014 09:00 13,4 C 66 % 1017,6 hPa 0,0 l/m 0,8 km/h N 7,1 C 13,4 C 6,0 km/h
18.03.2014 10:00 16,0 C 59 % 1016,8 hPa 0,0 l/m 2,8 km/h N 8,1 C 16,0 C 10,1 km/h
18.03.2014 11:00 17,5 C 54 % 1015,9 hPa 0,0 l/m 3,2 km/h N 8,2 C 17,5 C 12,5 km/h
18.03.2014 12:00 18,7 C 51 % 1014,7 hPa 0,0 l/m 3,7 km/h N 8,2 C 18,7 C 12,9 km/h
18.03.2014 13:00 19,9 C 44 % 1013,4 hPa 0,0 l/m 4,7 km/h N 7,1 C 19,8 C 16,1 km/h
18.03.2014 14:00 20,7 C 37 % 1012,6 hPa 0,0 l/m 6,4 km/h N 5,2 C 20,4 C 25,3 km/h
18.03.2014 15:00 20,5 C 31 % 1012,1 hPa 0,0 l/m 9,8 km/h N 2,8 C 19,4 C 25,8 km/h
18.03.2014 16:00 19,5 C 37 % 1011,9 hPa 0,0 l/m 6,9 km/h N 4,5 C 19,1 C 21,3 km/h
18.03.2014 17:00 18,4 C 42 % 1011,8 hPa 0,0 l/m 6,3 km/h N 5,2 C 18,1 C 18,9 km/h
18.03.2014 18:00 17,5 C 44 % 1012,0 hPa 0,0 l/m 2,2 km/h N 5,1 C 17,5 C 10,9 km/h
18.03.2014 19:00 16,0 C 49 % 1012,4 hPa 0,0 l/m 0,3 km/h N 5,3 C 16,0 C 2,8 km/h
18.03.2014 20:00 14,7 C 55 % 1012,4 hPa 0,0 l/m 1,0 km/h N 5,8 C 14,7 C 2,8 km/h
18.03.2014 21:00 14,0 C 57 % 1012,1 hPa 0,0 l/m 0,2 km/h N 5,6 C 14,0 C 2,0 km/h
18.03.2014 22:00 12,5 C 59 % 1012,2 hPa 0,0 l/m 0,6 km/h N 4,8 C 12,5 C 5,2 km/h
18.03.2014 23:00 14,1 C 53 % 1012,1 hPa 0,0 l/m 0,3 km/h N 4,6 C 14,1 C 5,6 km/h
19.03.2014 00:00 14,9 C 51 % 1012,0 hPa 0,0 l/m 1,2 km/h N 4,8 C 14,9 C 6,0 km/h
19.03.2014 01:00 13,1 C 59 % 1011,4 hPa 0,0 l/m 0,0 km/h N 5,2 C 13,1 C 1,6 km/h
19.03.2014 02:00 11,0 C 66 % 1011,2 hPa 0,0 l/m 0,1 km/h N 4,8 C 11,0 C 1,6 km/h
19.03.2014 03:00 9,8 C 70 % 1011,4 hPa 0,0 l/m 0,2 km/h N 4,5 C 9,8 C 3,2 km/h
19.03.2014 04:00 13,0 C 55 % 1012,4 hPa 0,0 l/m 7,6 km/h N 4,2 C 11,7 C 21,7 km/h
19.03.2014 05:00 13,6 C 50 % 1014,1 hPa 0,0 l/m 11,8 km/h N 3,3 C 10,8 C 33,0 km/h
19.03.2014 06:00 12,0 C 52 % 1015,5 hPa 0,0 l/m 14,0 km/h N 2,5 C 8,1 C 39,0 km/h
19.03.2014 07:00 11,6 C 53 % 1016,3 hPa 0,0 l/m 17,9 km/h N 2,4 C 6,1 C 41,4 km/h
19.03.2014 08:00 12,0 C 53 % 1017,2 hPa 0,0 l/m 20,0 km/h N 2,8 C 5,9 C 47,9 km/h
19.03.2014 09:00 11,4 C 60 % 1018,4 hPa 0,0 l/m 18,0 km/h N 3,7 C 5,8 C 41,8 km/h
19.03.2014 10:00 12,0 C 57 % 1019,2 hPa 0,0 l/m 19,7 km/h N 3,7 C 6,0 C 43,0 km/h
19.03.2014 11:00 12,8 C 56 % 1019,1 hPa 0,0 l/m 20,7 km/h N 4,3 C 6,8 C 47,9 km/h
19.03.2014 12:00 13,1 C 56 % 1019,3 hPa 0,3 l/m 16,2 km/h N 4,4 C 8,5 C 38,2 km/h
19.03.2014 13:00 13,6 C 51 % 1019,5 hPa 0,0 l/m 18,8 km/h N 3,7 C 8,3 C 45,9 km/h
19.03.2014 14:00 13,4 C 52 % 1020,5 hPa 0,0 l/m 22,3 km/h N 3,6 C 7,1 C 49,1 km/h
19.03.2014 15:00 13,8 C 51 % 1020,0 hPa 0,0 l/m 21,6 km/h N 3,7 C 7,8 C 43,1 km/h
19.03.2014 16:00 13,5 C 50 % 1019,9 hPa 0,0 l/m 22,1 km/h N 3,4 C 7,3 C 43,9 km/h
19.03.2014 17:00 13,1 C 49 % 1020,7 hPa 0,0 l/m 15,8 km/h N 2,7 C 8,6 C 38,6 km/h
19.03.2014 18:00 12,6 C 50 % 1021,6 hPa 0,0 l/m 11,5 km/h N 2,5 C 9,9 C 30,2 km/h
19.03.2014 19:00 12,4 C 52 % 1022,0 hPa 0,0 l/m 14,2 km/h N 2,8 C 8,4 C 31,0 km/h
19.03.2014 20:00 12,1 C 53 % 1022,6 hPa 0,0 l/m 10,9 km/h N 2,8 C 9,5 C 27,4 km/h
19.03.2014 21:00 12,1 C 54 % 1023,3 hPa 0,0 l/m 12,1 km/h N 3,1 C 8,9 C 34,2 km/h
19.03.2014 22:00 12,4 C 54 % 1023,9 hPa 0,0 l/m 12,9 km/h N 3,3 C 8,9 C 30,2 km/h
19.03.2014 23:00 12,3 C 54 % 1024,1 hPa 0,0 l/m 10,0 km/h N 3,2 C 10,2 C 27,3 km/h
20.03.2014 00:00 12,3 C 53 % 1024,0 hPa 0,0 l/m 9,8 km/h N 3,1 C 10,3 C 25,7 km/h
20.03.2014 01:00 12,4 C 54 % 1023,7 hPa 0,0 l/m 12,6 km/h N 3,2 C 9,0 C 33,4 km/h
20.03.2014 02:00 12,3 C 53 % 1023,8 hPa 0,0 l/m 12,2 km/h N 3,0 C 9,1 C 30,2 km/h
20.03.2014 03:00 12,2 C 53 % 1023,5 hPa 0,0 l/m 12,6 km/h N 2,9 C 8,8 C 33,4 km/h
20.03.2014 04:00 12,0 C 53 % 1023,4 hPa 0,0 l/m 10,3 km/h N 2,7 C 9,7 C 26,2 km/h
20.03.2014 05:00 11,6 C 54 % 1023,7 hPa 0,0 l/m 3,2 km/h N 2,7 C 11,6 C 15,7 km/h
20.03.2014 06:00 10,6 C 57 % 1024,1 hPa 0,0 l/m 0,7 km/h N 2,5 C 10,6 C 5,2 km/h
20.03.2014 07:00 11,0 C 59 % 1024,3 hPa 0,0 l/m 1,0 km/h N 3,2 C 11,0 C 5,6 km/h
20.03.2014 08:00 13,9 C 54 % 1024,5 hPa 0,0 l/m 0,8 km/h N 4,6 C 13,9 C 5,2 km/h
20.03.2014 09:00 14,9 C 48 % 1024,8 hPa 0,0 l/m 2,5 km/h N 4,0 C 14,9 C 7,6 km/h
20.03.2014 10:00 16,3 C 46 % 1024,4 hPa 0,0 l/m 1,3 km/h N 4,6 C 16,3 C 6,4 km/h
20.03.2014 11:00 17,5 C 44 % 1024,0 hPa 0,0 l/m 1,5 km/h N 5,0 C 17,5 C 7,6 km/h
20.03.2014 12:00 18,8 C 43 % 1023,5 hPa 0,0 l/m 2,2 km/h N 5,8 C 18,8 C 8,4 km/h
20.03.2014 13:00 19,5 C 41 % 1022,8 hPa 0,0 l/m 2,0 km/h N 5,7 C 19,5 C 9,3 km/h
20.03.2014 14:00 20,6 C 34 % 1022,0 hPa 0,0 l/m 4,3 km/h N 4,1 C 20,6 C 14,1 km/h
20.03.2014 15:00 20,9 C 35 % 1021,2 hPa 0,0 l/m 5,0 km/h N 5,0 C 20,9 C 17,3 km/h
20.03.2014 16:00 20,5 C 35 % 1020,2 hPa 0,0 l/m 5,1 km/h N 4,5 C 20,5 C 17,3 km/h
20.03.2014 17:00 20,1 C 33 % 1019,5 hPa 0,0 l/m 4,8 km/h N 3,1 C 20,1 C 14,1 km/h
20.03.2014 18:00 18,6 C 34 % 1019,3 hPa 0,0 l/m 4,0 km/h N 2,4 C 18,6 C 11,3 km/h
20.03.2014 19:00 16,3 C 40 % 1019,3 hPa 0,0 l/m 1,7 km/h N 2,5 C 16,3 C 8,1 km/h
20.03.2014 20:00 15,2 C 43 % 1019,1 hPa 0,0 l/m 3,3 km/h N 2,6 C 15,2 C 9,3 km/h
20.03.2014 21:00 13,8 C 47 % 1018,9 hPa 0,0 l/m 0,6 km/h N 2,8 C 13,8 C 6,0 km/h
20.03.2014 22:00 13,4 C 50 % 1018,2 hPa 0,0 l/m 4,2 km/h N 3,3 C 13,4 C 11,3 km/h
20.03.2014 23:00 12,2 C 53 % 1017,7 hPa 0,0 l/m 0,4 km/h N 2,9 C 12,2 C 4,4 km/h
21.03.2014 00:00 11,8 C 55 % 1017,0 hPa 0,0 l/m 1,6 km/h N 3,0 C 11,8 C 5,6 km/h
21.03.2014 01:00 9,2 C 60 % 1016,8 hPa 0,0 l/m 0,1 km/h N 1,9 C 9,2 C 1,2 km/h
21.03.2014 02:00 6,3 C 70 % 1016,4 hPa 0,0 l/m 0,2 km/h N 1,2 C 6,3 C 2,8 km/h
21.03.2014 03:00 4,8 C 76 % 1016,3 hPa 0,0 l/m 0,1 km/h N 0,8 C 4,8 C 2,0 km/h
21.03.2014 04:00 3,9 C 78 % 1016,3 hPa 0,0 l/m 0,0 km/h N 0,4 C 3,9 C 0,8 km/h
21.03.2014 05:00 3,0 C 80 % 1016,1 hPa 0,0 l/m 0,0 km/h N -0,1 C 3,0 C 0,0 km/h
21.03.2014 06:00 2,5 C 83 % 1016,3 hPa 0,0 l/m 0,0 km/h N -0,1 C 2,5 C 0,0 km/h
21.03.2014 07:00 5,4 C 83 % 1016,5 hPa 0,0 l/m 0,4 km/h N 2,7 C 5,4 C 2,8 km/h
21.03.2014 08:00 10,2 C 70 % 1016,0 hPa 0,0 l/m 0,4 km/h N 4,9 C 10,2 C 4,4 km/h
21.03.2014 09:00 13,9 C 58 % 1015,7 hPa 0,0 l/m 0,7 km/h N 5,8 C 13,9 C 5,2 km/h
21.03.2014 10:00 16,5 C 52 % 1015,2 hPa 0,0 l/m 1,0 km/h N 6,5 C 16,5 C 6,0 km/h
21.03.2014 11:00 18,3 C 49 % 1014,3 hPa 0,0 l/m 1,8 km/h N 7,4 C 18,3 C 8,4 km/h
21.03.2014 12:00 20,7 C 42 % 1013,2 hPa 0,0 l/m 2,8 km/h N 7,3 C 20,7 C 9,3 km/h
21.03.2014 13:00 22,4 C 35 % 1012,2 hPa 0,0 l/m 8,1 km/h N 6,2 C 21,7 C 21,3 km/h
21.03.2014 14:00 22,4 C 35 % 1011,6 hPa 0,0 l/m 8,2 km/h N 5,9 C 21,8 C 22,9 km/h
21.03.2014 15:00 22,4 C 33 % 1011,0 hPa 0,0 l/m 7,8 km/h N 5,4 C 21,9 C 19,7 km/h
21.03.2014 16:00 21,5 C 33 % 1010,7 hPa 0,0 l/m 7,3 km/h N 4,7 C 21,2 C 19,7 km/h
21.03.2014 17:00 20,5 C 37 % 1010,7 hPa 0,0 l/m 4,4 km/h N 5,1 C 20,5 C 11,7 km/h
21.03.2014 18:00 18,8 C 41 % 1010,9 hPa 0,0 l/m 2,9 km/h N 5,3 C 18,8 C 7,6 km/h
21.03.2014 19:00 15,6 C 48 % 1011,2 hPa 0,0 l/m 0,0 km/h N 4,7 C 15,6 C 0,0 km/h
21.03.2014 20:00 12,3 C 60 % 1011,1 hPa 0,0 l/m 0,1 km/h N 4,8 C 12,3 C 2,0 km/h
21.03.2014 21:00 11,2 C 66 % 1010,8 hPa 0,0 l/m 0,6 km/h N 5,1 C 11,2 C 2,8 km/h
21.03.2014 22:00 11,8 C 64 % 1010,6 hPa 0,0 l/m 2,7 km/h N 5,1 C 11,8 C 7,6 km/h
21.03.2014 23:00 9,7 C 68 % 1010,5 hPa 0,0 l/m 0,1 km/h N 4,0 C 9,7 C 2,0 km/h
22.03.2014 00:00 7,8 C 74 % 1010,2 hPa 0,0 l/m 0,1 km/h N 3,4 C 7,8 C 2,0 km/h
22.03.2014 01:00 6,7 C 77 % 1010,3 hPa 0,0 l/m 0,1 km/h N 3,0 C 6,7 C 1,2 km/h
22.03.2014 02:00 5,9 C 78 % 1010,1 hPa 0,0 l/m 0,0 km/h N 2,4 C 5,9 C 0,0 km/h
22.03.2014 03:00 5,0 C 80 % 1010,1 hPa 0,0 l/m 0,1 km/h N 1,8 C 5,0 C 1,2 km/h
22.03.2014 04:00 4,2 C 81 % 1010,2 hPa 0,0 l/m 0,0 km/h N 1,3 C 4,2 C 1,2 km/h
22.03.2014 05:00 3,6 C 83 % 1010,2 hPa 0,0 l/m 0,0 km/h N 0,9 C 3,6 C 0,0 km/h
22.03.2014 06:00 3,3 C 84 % 1010,1 hPa 0,0 l/m 0,0 km/h N 0,8 C 3,3 C 0,4 km/h
22.03.2014 07:00 5,3 C 82 % 1010,1 hPa 0,0 l/m 0,1 km/h N 2,4 C 5,3 C 0,8 km/h
22.03.2014 08:00 10,1 C 78 % 1009,8 hPa 0,0 l/m 0,2 km/h N 6,4 C 10,1 C 2,4 km/h
22.03.2014 09:00 14,3 C 61 % 1009,4 hPa 0,0 l/m 1,9 km/h N 6,8 C 14,3 C 8,1 km/h
22.03.2014 10:00 16,3 C 55 % 1008,9 hPa 0,0 l/m 1,7 km/h N 7,1 C 16,3 C 7,2 km/h
22.03.2014 11:00 17,4 C 52 % 1008,0 hPa 0,0 l/m 2,1 km/h N 7,3 C 17,4 C 9,3 km/h
22.03.2014 12:00 18,9 C 50 % 1006,6 hPa 0,0 l/m 2,9 km/h N 8,3 C 18,9 C 13,7 km/h
22.03.2014 13:00 19,6 C 45 % 1005,3 hPa 0,0 l/m 6,1 km/h N 7,4 C 19,6 C 18,9 km/h
22.03.2014 14:00 21,0 C 41 % 1003,7 hPa 0,0 l/m 6,8 km/h N 7,1 C 20,8 C 19,7 km/h
22.03.2014 15:00 21,6 C 37 % 1002,8 hPa 0,0 l/m 10,2 km/h N 6,2 C 20,3 C 27,8 km/h
22.03.2014 16:00 20,7 C 37 % 1002,3 hPa 0,0 l/m 9,3 km/h N 5,6 C 19,7 C 23,7 km/h
22.03.2014 17:00 19,4 C 41 % 1002,1 hPa 0,0 l/m 6,6 km/h N 5,6 C 19,1 C 20,1 km/h
22.03.2014 18:00 17,8 C 44 % 1001,9 hPa 0,0 l/m 5,9 km/h N 5,3 C 17,8 C 16,1 km/h
22.03.2014 19:00 16,3 C 49 % 1001,6 hPa 0,0 l/m 5,3 km/h N 5,6 C 16,3 C 14,1 km/h
22.03.2014 20:00 15,5 C 51 % 1001,6 hPa 0,0 l/m 4,6 km/h N 5,2 C 15,5 C 12,9 km/h
22.03.2014 21:00 14,1 C 54 % 1001,5 hPa 0,0 l/m 0,3 km/h N 5,0 C 14,1 C 2,8 km/h
22.03.2014 22:00 11,7 C 61 % 1002,3 hPa 0,0 l/m 0,8 km/h N 4,4 C 11,7 C 5,2 km/h
22.03.2014 23:00 13,1 C 65 % 1002,4 hPa 0,0 l/m 8,5 km/h N 6,6 C 11,6 C 27,8 km/h
23.03.2014 00:00 13,3 C 65 % 1003,1 hPa 0,0 l/m 5,5 km/h N 6,7 C 12,6 C 20,1 km/h
23.03.2014 01:00 12,3 C 67 % 1003,9 hPa 0,0 l/m 4,1 km/h N 6,4 C 12,3 C 15,3 km/h
23.03.2014 02:00 11,3 C 71 % 1003,8 hPa 0,0 l/m 2,3 km/h N 6,1 C 11,3 C 8,0 km/h
23.03.2014 03:00 10,8 C 72 % 1004,1 hPa 0,0 l/m 0,1 km/h N 5,9 C 10,8 C 4,0 km/h
23.03.2014 04:00 10,2 C 74 % 1003,8 hPa 0,0 l/m 0,2 km/h N 5,8 C 10,2 C 2,0 km/h
23.03.2014 05:00 9,9 C 76 % 1003,7 hPa 0,0 l/m 0,0 km/h N 5,8 C 9,9 C 0,4 km/h
23.03.2014 06:00 9,4 C 78 % 1003,5 hPa 0,0 l/m 0,0 km/h N 5,7 C 9,4 C 0,0 km/h
23.03.2014 07:00 9,6 C 80 % 1003,6 hPa 0,0 l/m 0,0 km/h N 6,2 C 9,6 C 0,0 km/h
23.03.2014 08:00 10,4 C 78 % 1003,7 hPa 0,0 l/m 0,5 km/h N 6,7 C 10,4 C 3,2 km/h
23.03.2014 09:00 10,4 C 76 % 1003,8 hPa 0,0 l/m 3,9 km/h N 6,4 C 10,4 C 12,9 km/h
23.03.2014 10:00 9,2 C 80 % 1003,4 hPa 0,0 l/m 4,8 km/h N 5,8 C 9,2 C 12,1 km/h
23.03.2014 11:00 8,8 C 82 % 1003,0 hPa 0,0 l/m 1,6 km/h N 5,8 C 8,8 C 8,0 km/h
23.03.2014 12:00 8,5 C 83 % 1002,4 hPa 0,3 l/m 3,2 km/h N 5,8 C 8,5 C 12,9 km/h
23.03.2014 13:00 8,6 C 81 % 1001,7 hPa 0,0 l/m 2,0 km/h N 5,6 C 8,6 C 8,0 km/h
23.03.2014 14:00 8,5 C 80 % 1001,5 hPa 0,0 l/m 4,5 km/h N 5,2 C 8,5 C 11,7 km/h
23.03.2014 15:00 7,4 C 81 % 1001,5 hPa 0,3 l/m 5,0 km/h N 4,4 C 7,4 C 16,9 km/h
23.03.2014 16:00 6,3 C 81 % 1002,4 hPa 0,5 l/m 6,3 km/h N 3,3 C 5,7 C 18,9 km/h
23.03.2014 17:00 4,9 C 82 % 1003,2 hPa 1,8 l/m 8,5 km/h N 2,2 C 3,1 C 27,4 km/h
23.03.2014 18:00 4,6 C 84 % 1003,8 hPa 1,3 l/m 4,5 km/h N 2,1 C 4,6 C 16,1 km/h
23.03.2014 19:00 4,4 C 84 % 1004,4 hPa 1,0 l/m 5,8 km/h N 1,9 C 4,2 C 18,5 km/h
23.03.2014 20:00 4,1 C 84 % 1005,0 hPa 1,0 l/m 6,1 km/h N 1,7 C 3,6 C 17,7 km/h
23.03.2014 21:00 4,5 C 84 % 1005,3 hPa 0,5 l/m 7,7 km/h N 2,0 C 3,3 C 21,7 km/h
23.03.2014 22:00 4,7 C 83 % 1005,3 hPa 0,0 l/m 6,4 km/h N 2,1 C 4,3 C 18,1 km/h
23.03.2014 23:00 4,8 C 83 % 1005,7 hPa 0,0 l/m 5,6 km/h N 2,1 C 4,8 C 18,9 km/h
Min-Datum _ 21.03.14 18.03.14 22.03.14 - 17.03.14 - 21.03.14 23.03.14 17.03.14
_ Min-Zeit 06:15 14:45 21:15 - 19:30 - 06:15 20:45 19:30
Minimum _ 2,4 C 29 % 1001,4 hPa - 0,0 km/h - -0,4 C 2,3 C 0,0 km/h
Max-Datum _ 21.03.14 21.03.14 20.03.14 23.03.14 17.03.14 - 22.03.14 21.03.14 17.03.14
_ Max-Zeit 13:15 07:00 09:30 17:00 09:00 - 12:30 13:00 10:00
Maximum _ 22,7 C 84 % 1024,9 hPa 1,8 l/m 27,0 km/h
N
- 8,8 C 22,5 C 54,7 km/h
N
Durchschnitt _ 13,0 C 59 % 1013,4 hPa #7,0 l/m 6,3 km/h N 4,6 C 11,7 C 16,9 km/h